FIN5RY ENBR-ESSA
Flight info
| Callsign | FIN5RY |
|---|---|
| Flight time | 1h 2m |
| Altitude | 39000 |
| Route | GOKAB DCT ELTOK |
| Aircraft | A320/M-SDE3FGHIRWY/LB1 |
Departure
| Time | 2026-05-06 18:18 |
|---|---|
| Airport | Bergen Airport, Flesland (ENBR) |
Arrival
| Time | 2026-05-06 19:20 |
|---|---|
| Airport | Stockholm-Arlanda Airport (ESSA) |
| Time | Latitude | Longitude | Altitude | Speed | Heading |
|---|---|---|---|---|---|
| 2026-05-06 17:38 | 60.29081 | 5.22877 | 175 ft | 0 kts | 45° |
| 2026-05-06 18:05 | 60.29075 | 5.22865 | 176 ft | 2 kts | 44° |
| 2026-05-06 18:05 | 60.29064 | 5.22843 | 177 ft | 2 kts | 45° |
| 2026-05-06 18:05 | 60.29055 | 5.22826 | 177 ft | 0 kts | 45° |
| 2026-05-06 18:06 | 60.29045 | 5.22814 | 177 ft | 2 kts | 353° |
| 2026-05-06 18:06 | 60.29034 | 5.22826 | 177 ft | 0 kts | 298° |
| 2026-05-06 18:06 | 60.29032 | 5.22840 | 177 ft | 1 kts | 292° |
| 2026-05-06 18:06 | 60.29031 | 5.22842 | 176 ft | 0 kts | 292° |
| 2026-05-06 18:09 | 60.29032 | 5.22840 | 176 ft | 1 kts | 292° |
| 2026-05-06 18:09 | 60.29036 | 5.22816 | 176 ft | 4 kts | 287° |
| 2026-05-06 18:09 | 60.29045 | 5.22737 | 175 ft | 7 kts | 279° |
| 2026-05-06 18:10 | 60.29043 | 5.22619 | 174 ft | 10 kts | 261° |
| 2026-05-06 18:10 | 60.29039 | 5.22560 | 174 ft | 2 kts | 259° |
| 2026-05-06 18:10 | 60.29037 | 5.22544 | 174 ft | 0 kts | 259° |
| 2026-05-06 18:10 | 60.29037 | 5.22538 | 174 ft | 2 kts | 259° |
| 2026-05-06 18:11 | 60.29035 | 5.22523 | 174 ft | 0 kts | 260° |
| 2026-05-06 18:11 | 60.29034 | 5.22508 | 174 ft | 2 kts | 260° |
| 2026-05-06 18:12 | 60.29030 | 5.22464 | 173 ft | 5 kts | 259° |
| 2026-05-06 18:12 | 60.29039 | 5.22384 | 173 ft | 7 kts | 310° |
| 2026-05-06 18:12 | 60.29095 | 5.22342 | 173 ft | 10 kts | 351° |
| 2026-05-06 18:12 | 60.29174 | 5.22315 | 172 ft | 13 kts | 350° |
| 2026-05-06 18:13 | 60.29272 | 5.22281 | 170 ft | 15 kts | 350° |
| 2026-05-06 18:13 | 60.29389 | 5.22243 | 168 ft | 18 kts | 351° |
| 2026-05-06 18:13 | 60.29518 | 5.22201 | 166 ft | 19 kts | 350° |
| 2026-05-06 18:13 | 60.29648 | 5.22157 | 163 ft | 17 kts | 350° |
| 2026-05-06 18:14 | 60.29719 | 5.22119 | 163 ft | 9 kts | 314° |
| 2026-05-06 18:14 | 60.29744 | 5.22009 | 163 ft | 9 kts | 328° |
| 2026-05-06 18:14 | 60.29813 | 5.21978 | 163 ft | 11 kts | 350° |
| 2026-05-06 18:14 | 60.29894 | 5.21950 | 163 ft | 12 kts | 350° |
| 2026-05-06 18:15 | 60.29980 | 5.21921 | 164 ft | 13 kts | 350° |
| 2026-05-06 18:15 | 60.30071 | 5.21891 | 165 ft | 14 kts | 351° |
| 2026-05-06 18:15 | 60.30179 | 5.21855 | 167 ft | 17 kts | 350° |
| 2026-05-06 18:15 | 60.30299 | 5.21814 | 171 ft | 17 kts | 350° |
| 2026-05-06 18:16 | 60.30411 | 5.21777 | 174 ft | 16 kts | 350° |
| 2026-05-06 18:16 | 60.30516 | 5.21741 | 178 ft | 16 kts | 350° |
| 2026-05-06 18:16 | 60.30617 | 5.21707 | 182 ft | 12 kts | 350° |
| 2026-05-06 18:16 | 60.30663 | 5.21600 | 184 ft | 11 kts | 266° |
| 2026-05-06 18:17 | 60.30648 | 5.21448 | 186 ft | 11 kts | 249° |
| 2026-05-06 18:17 | 60.30576 | 5.21399 | 184 ft | 14 kts | 171° |
| 2026-05-06 18:17 | 60.30299 | 5.21492 | 175 ft | 80 kts | 170° |
| 2026-05-06 18:17 | 60.29494 | 5.21763 | 169 ft | 150 kts | 171° |
| 2026-05-06 18:18 | 60.28438 | 5.22110 | 778 ft | 157 kts | 171° |
| 2026-05-06 18:18 | 60.27350 | 5.22461 | 1531 ft | 163 kts | 171° |
| 2026-05-06 18:18 | 60.26220 | 5.22821 | 2210 ft | 175 kts | 172° |
| 2026-05-06 18:18 | 60.24963 | 5.23230 | 2786 ft | 194 kts | 171° |
| 2026-05-06 18:19 | 60.23568 | 5.23721 | 3335 ft | 218 kts | 171° |
| 2026-05-06 18:19 | 60.22029 | 5.24261 | 4017 ft | 236 kts | 171° |
| 2026-05-06 18:19 | 60.20362 | 5.24833 | 4714 ft | 255 kts | 171° |
| 2026-05-06 18:19 | 60.18571 | 5.25436 | 5463 ft | 271 kts | 171° |
| 2026-05-06 18:20 | 60.16707 | 5.26062 | 6449 ft | 276 kts | 171° |
| 2026-05-06 18:20 | 60.14833 | 5.26690 | 7490 ft | 279 kts | 172° |
| 2026-05-06 18:20 | 60.12936 | 5.27386 | 8456 ft | 284 kts | 166° |
| 2026-05-06 18:20 | 60.11213 | 5.29269 | 9350 ft | 293 kts | 136° |
| 2026-05-06 18:21 | 60.10115 | 5.32648 | 10269 ft | 297 kts | 107° |
| 2026-05-06 18:21 | 60.09913 | 5.36729 | 11129 ft | 300 kts | 81° |
| 2026-05-06 18:21 | 60.10494 | 5.40716 | 11937 ft | 302 kts | 58° |
| 2026-05-06 18:21 | 60.11610 | 5.44354 | 12548 ft | 314 kts | 53° |
| 2026-05-06 18:22 | 60.12843 | 5.48124 | 13108 ft | 330 kts | 52° |
| 2026-05-06 18:22 | 60.14113 | 5.51994 | 13844 ft | 338 kts | 52° |
| 2026-05-06 18:22 | 60.15402 | 5.55947 | 14610 ft | 345 kts | 52° |
| 2026-05-06 18:22 | 60.16711 | 5.59985 | 15356 ft | 351 kts | 52° |
| 2026-05-06 18:23 | 60.18049 | 5.64132 | 16088 ft | 356 kts | 52° |
| 2026-05-06 18:23 | 60.19406 | 5.68347 | 16765 ft | 363 kts | 53° |
| 2026-05-06 18:23 | 60.20788 | 5.72653 | 17446 ft | 369 kts | 53° |
| 2026-05-06 18:23 | 60.22185 | 5.77009 | 18151 ft | 373 kts | 53° |
| 2026-05-06 18:24 | 60.23598 | 5.81431 | 18774 ft | 379 kts | 52° |
| 2026-05-06 18:24 | 60.25034 | 5.85933 | 19404 ft | 385 kts | 52° |
| 2026-05-06 18:24 | 60.26486 | 5.90486 | 20017 ft | 390 kts | 52° |
| 2026-05-06 18:24 | 60.27969 | 5.95147 | 20641 ft | 395 kts | 53° |
| 2026-05-06 18:25 | 60.29454 | 5.99829 | 21252 ft | 400 kts | 53° |
| 2026-05-06 18:25 | 60.30970 | 6.04619 | 21872 ft | 404 kts | 53° |
| 2026-05-06 18:25 | 60.32488 | 6.09429 | 22437 ft | 409 kts | 53° |
| 2026-05-06 18:25 | 60.34025 | 6.14307 | 22974 ft | 415 kts | 53° |
| 2026-05-06 18:26 | 60.35574 | 6.19231 | 23528 ft | 419 kts | 53° |
| 2026-05-06 18:26 | 60.37137 | 6.24215 | 24073 ft | 423 kts | 53° |
| 2026-05-06 18:26 | 60.38723 | 6.29287 | 24569 ft | 428 kts | 53° |
| 2026-05-06 18:26 | 60.40167 | 6.34619 | 25016 ft | 439 kts | 67° |
| 2026-05-06 18:27 | 60.40696 | 6.40743 | 25537 ft | 443 kts | 90° |
| 2026-05-06 18:27 | 60.40492 | 6.46940 | 26128 ft | 443 kts | 97° |
| 2026-05-06 18:27 | 60.40152 | 6.53147 | 26619 ft | 447 kts | 97° |
| 2026-05-06 18:27 | 60.39853 | 6.59408 | 27075 ft | 451 kts | 96° |
| 2026-05-06 18:28 | 60.39623 | 6.65731 | 27511 ft | 454 kts | 96° |
| 2026-05-06 18:28 | 60.39449 | 6.72154 | 27886 ft | 457 kts | 95° |
| 2026-05-06 18:28 | 60.39305 | 6.78607 | 28314 ft | 460 kts | 94° |
| 2026-05-06 18:28 | 60.39179 | 6.85122 | 28665 ft | 464 kts | 94° |
| 2026-05-06 18:29 | 60.39056 | 6.91705 | 29063 ft | 466 kts | 94° |
| 2026-05-06 18:29 | 60.38937 | 6.98312 | 29426 ft | 468 kts | 94° |
| 2026-05-06 18:29 | 60.38813 | 7.04952 | 29772 ft | 471 kts | 94° |
| 2026-05-06 18:29 | 60.38687 | 7.11615 | 30163 ft | 473 kts | 95° |
| 2026-05-06 18:30 | 60.38556 | 7.18347 | 30463 ft | 476 kts | 94° |
| 2026-05-06 18:30 | 60.38421 | 7.25078 | 30739 ft | 480 kts | 95° |
| 2026-05-06 18:30 | 60.38282 | 7.31902 | 31023 ft | 482 kts | 94° |
| 2026-05-06 18:30 | 60.38138 | 7.38757 | 31287 ft | 484 kts | 94° |
| 2026-05-06 18:31 | 60.37991 | 7.45551 | 31583 ft | 485 kts | 95° |
| 2026-05-06 18:31 | 60.37842 | 7.52378 | 31885 ft | 486 kts | 95° |
| 2026-05-06 18:31 | 60.37686 | 7.59239 | 32133 ft | 487 kts | 94° |
| 2026-05-06 18:31 | 60.37527 | 7.66136 | 32426 ft | 487 kts | 95° |
| 2026-05-06 18:32 | 60.37365 | 7.73017 | 32682 ft | 488 kts | 95° |
| 2026-05-06 18:32 | 60.37198 | 7.79983 | 32943 ft | 489 kts | 95° |
| 2026-05-06 18:32 | 60.37027 | 7.86919 | 33197 ft | 490 kts | 95° |
| 2026-05-06 18:32 | 60.36854 | 7.93839 | 33453 ft | 491 kts | 95° |
| 2026-05-06 18:33 | 60.36675 | 8.00822 | 33718 ft | 492 kts | 95° |
| 2026-05-06 18:33 | 60.36492 | 8.07821 | 33964 ft | 493 kts | 95° |
| 2026-05-06 18:33 | 60.36307 | 8.14776 | 34186 ft | 494 kts | 95° |
| 2026-05-06 18:33 | 60.36118 | 8.21726 | 34416 ft | 495 kts | 95° |
| 2026-05-06 18:34 | 60.35921 | 8.28788 | 34648 ft | 496 kts | 95° |
| 2026-05-06 18:34 | 60.35723 | 8.35777 | 34932 ft | 496 kts | 95° |
| 2026-05-06 18:34 | 60.35524 | 8.42734 | 35235 ft | 494 kts | 95° |
| 2026-05-06 18:34 | 60.35318 | 8.49725 | 35518 ft | 493 kts | 95° |
| 2026-05-06 18:35 | 60.35111 | 8.56662 | 35773 ft | 492 kts | 95° |
| 2026-05-06 18:35 | 60.34901 | 8.63592 | 36001 ft | 492 kts | 95° |
| 2026-05-06 18:35 | 60.34688 | 8.70491 | 36202 ft | 491 kts | 96° |
| 2026-05-06 18:35 | 60.34471 | 8.77427 | 36461 ft | 491 kts | 96° |
| 2026-05-06 18:36 | 60.34252 | 8.84303 | 36662 ft | 490 kts | 96° |
| 2026-05-06 18:36 | 60.34027 | 8.91205 | 36860 ft | 490 kts | 96° |
| 2026-05-06 18:36 | 60.33799 | 8.98102 | 37056 ft | 490 kts | 96° |
| 2026-05-06 18:36 | 60.33568 | 9.04983 | 37206 ft | 491 kts | 96° |
| 2026-05-06 18:37 | 60.33332 | 9.11895 | 37333 ft | 492 kts | 96° |
| 2026-05-06 18:37 | 60.33092 | 9.18821 | 37478 ft | 493 kts | 96° |
| 2026-05-06 18:37 | 60.32849 | 9.25773 | 37621 ft | 493 kts | 95° |
| 2026-05-06 18:37 | 60.32603 | 9.32661 | 37738 ft | 494 kts | 96° |
| 2026-05-06 18:38 | 60.32354 | 9.39580 | 37881 ft | 494 kts | 95° |
| 2026-05-06 18:38 | 60.32099 | 9.46550 | 38029 ft | 495 kts | 95° |
| 2026-05-06 18:38 | 60.31842 | 9.53476 | 38146 ft | 496 kts | 95° |
| 2026-05-06 18:38 | 60.31581 | 9.60415 | 38299 ft | 496 kts | 96° |
| 2026-05-06 18:39 | 60.31315 | 9.67372 | 38459 ft | 496 kts | 96° |
| 2026-05-06 18:39 | 60.31046 | 9.74338 | 38591 ft | 497 kts | 96° |
| 2026-05-06 18:39 | 60.30773 | 9.81290 | 38741 ft | 496 kts | 96° |
| 2026-05-06 18:40 | 60.30216 | 9.95145 | 38860 ft | 498 kts | 96° |
| 2026-05-06 18:40 | 60.29649 | 10.09004 | 38865 ft | 499 kts | 97° |
| 2026-05-06 18:41 | 60.29060 | 10.22930 | 38869 ft | 499 kts | 96° |
| 2026-05-06 18:41 | 60.28461 | 10.36782 | 38860 ft | 499 kts | 96° |
| 2026-05-06 18:42 | 60.27848 | 10.50611 | 38848 ft | 498 kts | 96° |
| 2026-05-06 18:42 | 60.27221 | 10.64406 | 38854 ft | 499 kts | 97° |
| 2026-05-06 18:43 | 60.26575 | 10.78338 | 38868 ft | 499 kts | 97° |
| 2026-05-06 18:43 | 60.25917 | 10.92214 | 38886 ft | 499 kts | 98° |
| 2026-05-06 18:44 | 60.25244 | 11.06094 | 38886 ft | 497 kts | 98° |
| 2026-05-06 18:44 | 60.24555 | 11.19965 | 38884 ft | 497 kts | 98° |
| 2026-05-06 18:45 | 60.23857 | 11.33725 | 38883 ft | 497 kts | 98° |
| 2026-05-06 18:45 | 60.23145 | 11.47507 | 38873 ft | 498 kts | 98° |
| 2026-05-06 18:46 | 60.22416 | 11.61279 | 38884 ft | 498 kts | 98° |
| 2026-05-06 18:46 | 60.21672 | 11.75124 | 38872 ft | 498 kts | 99° |
| 2026-05-06 18:47 | 60.20916 | 11.88883 | 38873 ft | 498 kts | 98° |
| 2026-05-06 18:47 | 60.20147 | 12.02622 | 38874 ft | 497 kts | 99° |
| 2026-05-06 18:48 | 60.19363 | 12.16403 | 38854 ft | 497 kts | 99° |
| 2026-05-06 18:48 | 60.18565 | 12.30118 | 38852 ft | 498 kts | 99° |
| 2026-05-06 18:49 | 60.17754 | 12.43847 | 38846 ft | 497 kts | 99° |
| 2026-05-06 18:49 | 60.16928 | 12.57547 | 38866 ft | 498 kts | 99° |
| 2026-05-06 18:50 | 60.16081 | 12.71356 | 38856 ft | 499 kts | 100° |
| 2026-05-06 18:50 | 60.15226 | 12.85085 | 38872 ft | 498 kts | 100° |
| 2026-05-06 18:51 | 60.14358 | 12.98812 | 38874 ft | 499 kts | 100° |
| 2026-05-06 18:51 | 60.13467 | 13.12579 | 38870 ft | 498 kts | 100° |
| 2026-05-06 18:52 | 60.12570 | 13.26255 | 38881 ft | 498 kts | 100° |
| 2026-05-06 18:52 | 60.11660 | 13.39914 | 38888 ft | 498 kts | 100° |
| 2026-05-06 18:53 | 60.10735 | 13.53578 | 38886 ft | 498 kts | 100° |
| 2026-05-06 18:53 | 60.09794 | 13.67285 | 38879 ft | 497 kts | 101° |
| 2026-05-06 18:54 | 60.08836 | 13.80996 | 38672 ft | 499 kts | 101° |
| 2026-05-06 18:54 | 60.08362 | 13.87724 | 38302 ft | 495 kts | 101° |
| 2026-05-06 18:54 | 60.07872 | 13.94644 | 37757 ft | 495 kts | 102° |
| 2026-05-06 18:54 | 60.07383 | 14.01485 | 37096 ft | 498 kts | 102° |
| 2026-05-06 18:55 | 60.06881 | 14.08429 | 36405 ft | 501 kts | 102° |
| 2026-05-06 18:55 | 60.06382 | 14.15311 | 35753 ft | 502 kts | 102° |
| 2026-05-06 18:55 | 60.05872 | 14.22249 | 35082 ft | 504 kts | 103° |
| 2026-05-06 18:55 | 60.05360 | 14.29203 | 34417 ft | 508 kts | 103° |
| 2026-05-06 18:56 | 60.04838 | 14.36197 | 33656 ft | 512 kts | 103° |
| 2026-05-06 18:56 | 60.04312 | 14.43230 | 32904 ft | 515 kts | 103° |
| 2026-05-06 18:56 | 60.03778 | 14.50317 | 32102 ft | 517 kts | 104° |
| 2026-05-06 18:56 | 60.03232 | 14.57469 | 31143 ft | 519 kts | 104° |
| 2026-05-06 18:57 | 60.02684 | 14.64589 | 30078 ft | 523 kts | 104° |
| 2026-05-06 18:57 | 60.02123 | 14.71760 | 29018 ft | 524 kts | 104° |
| 2026-05-06 18:57 | 60.01564 | 14.78892 | 28133 ft | 520 kts | 104° |
| 2026-05-06 18:57 | 60.01012 | 14.85952 | 27546 ft | 509 kts | 104° |
| 2026-05-06 18:58 | 60.00473 | 14.92856 | 26997 ft | 499 kts | 104° |
| 2026-05-06 18:58 | 59.99936 | 14.99649 | 26485 ft | 489 kts | 104° |
| 2026-05-06 18:58 | 59.99401 | 15.06322 | 25961 ft | 480 kts | 104° |
| 2026-05-06 18:58 | 59.98879 | 15.12826 | 25472 ft | 471 kts | 104° |
| 2026-05-06 18:59 | 59.98363 | 15.19194 | 24996 ft | 462 kts | 104° |
| 2026-05-06 18:59 | 59.97852 | 15.25432 | 24512 ft | 455 kts | 104° |
| 2026-05-06 18:59 | 59.97348 | 15.31566 | 24044 ft | 447 kts | 103° |
| 2026-05-06 18:59 | 59.96847 | 15.37612 | 23584 ft | 440 kts | 103° |
| 2026-05-06 19:00 | 59.96353 | 15.43558 | 23138 ft | 434 kts | 103° |
| 2026-05-06 19:00 | 59.95861 | 15.49460 | 22663 ft | 429 kts | 103° |
| 2026-05-06 19:00 | 59.95375 | 15.55246 | 22216 ft | 423 kts | 103° |
| 2026-05-06 19:00 | 59.94890 | 15.60975 | 21778 ft | 418 kts | 103° |
| 2026-05-06 19:01 | 59.94409 | 15.66639 | 21334 ft | 413 kts | 103° |
| 2026-05-06 19:01 | 59.93931 | 15.72235 | 20890 ft | 409 kts | 103° |
| 2026-05-06 19:01 | 59.93459 | 15.77749 | 20470 ft | 404 kts | 103° |
| 2026-05-06 19:01 | 59.93009 | 15.82952 | 20068 ft | 400 kts | 103° |
| 2026-05-06 19:02 | 59.92536 | 15.88404 | 19578 ft | 398 kts | 102° |
| 2026-05-06 19:02 | 59.92068 | 15.93779 | 19128 ft | 395 kts | 102° |
| 2026-05-06 19:02 | 59.91603 | 15.99108 | 18705 ft | 391 kts | 102° |
| 2026-05-06 19:02 | 59.91139 | 16.04395 | 18271 ft | 387 kts | 102° |
| 2026-05-06 19:03 | 59.90677 | 16.09623 | 17861 ft | 384 kts | 102° |
| 2026-05-06 19:03 | 59.90217 | 16.14804 | 17458 ft | 380 kts | 102° |
| 2026-05-06 19:03 | 59.89759 | 16.19956 | 17063 ft | 376 kts | 102° |
| 2026-05-06 19:03 | 59.89299 | 16.25082 | 16647 ft | 374 kts | 102° |
| 2026-05-06 19:04 | 59.88843 | 16.30157 | 16229 ft | 371 kts | 102° |
| 2026-05-06 19:04 | 59.88390 | 16.35177 | 15826 ft | 368 kts | 102° |
| 2026-05-06 19:04 | 59.87941 | 16.40130 | 15534 ft | 360 kts | 102° |
| 2026-05-06 19:04 | 59.87499 | 16.44979 | 15228 ft | 354 kts | 102° |
| 2026-05-06 19:05 | 59.87059 | 16.49780 | 14884 ft | 350 kts | 102° |
| 2026-05-06 19:05 | 59.86625 | 16.54498 | 14504 ft | 346 kts | 102° |
| 2026-05-06 19:05 | 59.86190 | 16.59193 | 14121 ft | 343 kts | 101° |
| 2026-05-06 19:05 | 59.85759 | 16.63835 | 13726 ft | 341 kts | 101° |
| 2026-05-06 19:06 | 59.85331 | 16.68446 | 13355 ft | 337 kts | 102° |
| 2026-05-06 19:06 | 59.84906 | 16.72996 | 12955 ft | 334 kts | 102° |
| 2026-05-06 19:06 | 59.84497 | 16.77358 | 12575 ft | 331 kts | 102° |
| 2026-05-06 19:06 | 59.84075 | 16.81830 | 12165 ft | 329 kts | 102° |
| 2026-05-06 19:07 | 59.83656 | 16.86254 | 11774 ft | 326 kts | 102° |
| 2026-05-06 19:07 | 59.83236 | 16.90666 | 11377 ft | 323 kts | 101° |
| 2026-05-06 19:07 | 59.82824 | 16.95000 | 10973 ft | 320 kts | 100° |
| 2026-05-06 19:07 | 59.82576 | 16.99353 | 10579 ft | 317 kts | 91° |
| 2026-05-06 19:08 | 59.82659 | 17.03690 | 10199 ft | 312 kts | 83° |
| 2026-05-06 19:08 | 59.82899 | 17.07942 | 9982 ft | 311 kts | 83° |
| 2026-05-06 19:08 | 59.83043 | 17.12207 | 9829 ft | 309 kts | 86° |
| 2026-05-06 19:08 | 59.83120 | 17.16436 | 9429 ft | 307 kts | 87° |
| 2026-05-06 19:09 | 59.83186 | 17.20671 | 8991 ft | 306 kts | 87° |
| 2026-05-06 19:09 | 59.83249 | 17.24868 | 8557 ft | 304 kts | 87° |
| 2026-05-06 19:09 | 59.83313 | 17.29024 | 8114 ft | 301 kts | 87° |
| 2026-05-06 19:09 | 59.83375 | 17.33137 | 7766 ft | 296 kts | 87° |
| 2026-05-06 19:10 | 59.83434 | 17.37142 | 7591 ft | 286 kts | 87° |
| 2026-05-06 19:10 | 59.83486 | 17.41025 | 7369 ft | 277 kts | 87° |
| 2026-05-06 19:10 | 59.83536 | 17.44771 | 7194 ft | 268 kts | 87° |
| 2026-05-06 19:10 | 59.83587 | 17.48431 | 6996 ft | 261 kts | 87° |
| 2026-05-06 19:11 | 59.83634 | 17.52004 | 6693 ft | 259 kts | 87° |
| 2026-05-06 19:11 | 59.83682 | 17.55563 | 6364 ft | 258 kts | 87° |
| 2026-05-06 19:11 | 59.83737 | 17.59093 | 6051 ft | 257 kts | 87° |
| 2026-05-06 19:11 | 59.83803 | 17.62597 | 5754 ft | 254 kts | 87° |
| 2026-05-06 19:12 | 59.83884 | 17.66059 | 5456 ft | 252 kts | 88° |
| 2026-05-06 19:12 | 59.83976 | 17.69501 | 5291 ft | 244 kts | 88° |
| 2026-05-06 19:12 | 59.84070 | 17.72825 | 5137 ft | 236 kts | 88° |
| 2026-05-06 19:12 | 59.84164 | 17.76000 | 4876 ft | 227 kts | 88° |
| 2026-05-06 19:13 | 59.84265 | 17.79092 | 4456 ft | 224 kts | 88° |
| 2026-05-06 19:13 | 59.84380 | 17.82159 | 4011 ft | 222 kts | 88° |
| 2026-05-06 19:13 | 59.84514 | 17.85194 | 3554 ft | 221 kts | 88° |
| 2026-05-06 19:13 | 59.84664 | 17.88200 | 3114 ft | 219 kts | 88° |
| 2026-05-06 19:14 | 59.84830 | 17.91172 | 2683 ft | 216 kts | 88° |
| 2026-05-06 19:14 | 59.84986 | 17.94104 | 2472 ft | 206 kts | 94° |
| 2026-05-06 19:14 | 59.84635 | 17.96682 | 2462 ft | 191 kts | 130° |
| 2026-05-06 19:14 | 59.83636 | 17.98164 | 2471 ft | 174 kts | 160° |
| 2026-05-06 19:15 | 59.82507 | 17.98850 | 2471 ft | 169 kts | 166° |
| 2026-05-06 19:15 | 59.81371 | 17.99386 | 2469 ft | 168 kts | 167° |
| 2026-05-06 19:15 | 59.80236 | 17.99891 | 2466 ft | 168 kts | 167° |
| 2026-05-06 19:15 | 59.79088 | 18.00293 | 2470 ft | 168 kts | 174° |
| 2026-05-06 19:16 | 59.77914 | 18.00332 | 2476 ft | 169 kts | 182° |
| 2026-05-06 19:16 | 59.76747 | 18.00110 | 2517 ft | 169 kts | 185° |
| 2026-05-06 19:16 | 59.75577 | 17.99759 | 2364 ft | 170 kts | 187° |
| 2026-05-06 19:16 | 59.74424 | 17.99351 | 2099 ft | 168 kts | 188° |
| 2026-05-06 19:17 | 59.73296 | 17.98936 | 1848 ft | 163 kts | 188° |
| 2026-05-06 19:17 | 59.72230 | 17.98544 | 1603 ft | 151 kts | 187° |
| 2026-05-06 19:17 | 59.71245 | 17.98184 | 1406 ft | 138 kts | 187° |
| 2026-05-06 19:17 | 59.70343 | 17.97856 | 1223 ft | 125 kts | 186° |
| 2026-05-06 19:18 | 59.69520 | 17.97563 | 1049 ft | 119 kts | 186° |
| 2026-05-06 19:18 | 59.68710 | 17.97265 | 912 ft | 119 kts | 187° |
| 2026-05-06 19:18 | 59.67904 | 17.96972 | 738 ft | 118 kts | 186° |
| 2026-05-06 19:18 | 59.67098 | 17.96689 | 584 ft | 118 kts | 187° |
| 2026-05-06 19:19 | 59.66295 | 17.96393 | 430 ft | 118 kts | 187° |
| 2026-05-06 19:19 | 59.65494 | 17.96104 | 264 ft | 117 kts | 187° |
| 2026-05-06 19:19 | 59.64667 | 17.95811 | 122 ft | 116 kts | 188° |
| 2026-05-06 19:19 | 59.63961 | 17.95554 | 113 ft | 81 kts | 190° |
| 2026-05-06 19:20 | 59.63588 | 17.95418 | 121 ft | 31 kts | 191° |
| 2026-05-06 19:20 | 59.63424 | 17.95308 | 125 ft | 20 kts | 208° |
| 2026-05-06 19:20 | 59.63320 | 17.95162 | 128 ft | 18 kts | 220° |
| 2026-05-06 19:20 | 59.63251 | 17.95039 | 130 ft | 11 kts | 234° |
| 2026-05-06 19:21 | 59.63267 | 17.94908 | 128 ft | 12 kts | 341° |
| 2026-05-06 19:21 | 59.63367 | 17.94930 | 126 ft | 16 kts | 11° |
| 2026-05-06 19:21 | 59.63488 | 17.94973 | 123 ft | 19 kts | 11° |
| 2026-05-06 19:21 | 59.63628 | 17.95024 | 119 ft | 22 kts | 10° |
| 2026-05-06 19:22 | 59.63784 | 17.95080 | 115 ft | 24 kts | 11° |
| 2026-05-06 19:22 | 59.63954 | 17.95142 | 111 ft | 26 kts | 12° |
| 2026-05-06 19:22 | 59.64134 | 17.95207 | 108 ft | 24 kts | 11° |
| 2026-05-06 19:22 | 59.64254 | 17.95231 | 106 ft | 17 kts | 351° |
| 2026-05-06 19:23 | 59.64360 | 17.95112 | 104 ft | 19 kts | 309° |
| 2026-05-06 19:23 | 59.64406 | 17.94849 | 100 ft | 22 kts | 267° |
| 2026-05-06 19:23 | 59.64340 | 17.94570 | 97 ft | 24 kts | 238° |
| 2026-05-06 19:23 | 59.64251 | 17.94292 | 94 ft | 24 kts | 237° |
| 2026-05-06 19:24 | 59.64166 | 17.94026 | 95 ft | 22 kts | 237° |
| 2026-05-06 19:24 | 59.64090 | 17.93786 | 99 ft | 19 kts | 238° |
| 2026-05-06 19:24 | 59.64026 | 17.93584 | 104 ft | 15 kts | 238° |
| 2026-05-06 19:24 | 59.63989 | 17.93403 | 106 ft | 13 kts | 265° |
| 2026-05-06 19:25 | 59.64007 | 17.93226 | 109 ft | 14 kts | 295° |
| 2026-05-06 19:25 | 59.64053 | 17.93053 | 111 ft | 15 kts | 297° |
| 2026-05-06 19:25 | 59.64103 | 17.92862 | 112 ft | 16 kts | 297° |
| 2026-05-06 19:25 | 59.64158 | 17.92651 | 112 ft | 18 kts | 297° |
| 2026-05-06 19:26 | 59.64203 | 17.92494 | 113 ft | 9 kts | 318° |
| 2026-05-06 19:26 | 59.64264 | 17.92487 | 113 ft | 9 kts | 360° |
| 2026-05-06 19:26 | 59.64328 | 17.92478 | 112 ft | 10 kts | 26° |
| 2026-05-06 19:26 | 59.64382 | 17.92562 | 112 ft | 8 kts | 49° |
| 2026-05-06 19:27 | 59.64408 | 17.92626 | 112 ft | 5 kts | 52° |
| 2026-05-06 19:27 | 59.64425 | 17.92669 | 112 ft | 3 kts | 52° |
| 2026-05-06 19:27 | 59.64433 | 17.92687 | 112 ft | 0 kts | 51° |